Terminal Aerodrome Forecast
Issued by NWS

Home | Current Version | Previous Version | Text Only | Print | Product List | Glossary On
Versions: 1 2 3 4 5 6 7 8 9 10 11 12 13 14 15 16 17 18 19
140
FTUS44 KLIX 240806 AAA
TAFMCB
TAF AMD
KMCB 240806Z 2408/2506 16008KT 1 1/2SM BR OVC002
     FM241400 17008KT P6SM BKN015
     FM241800 18012KT P6SM SCT015 BKN040 PROB30 2418/2424 4SM TSRA
      OVC015CB
     FM250000 19009KT P6SM BKN010 PROB30 2500/2506 4SM TSRA
      BKN010CB=

USA.gov is the U.S. government's official web portal to all federal, state and local government web resources and services.